Search for airport 
image banner adimage banner adimage banner ad
image banner ad

CA93 - Crows Landing

Located in Crows Landing, United States

ICAO - CA93, IATA -

Data provided by Airmate  

General information

Coordinates: N37°24'29" W121°6'34"
Elevation is 166 feet MSL.
Magnetic variation is 16° East
View others Airports in California

Operational data

Special qualification required
Current time UTC:
Current local time:
METAR: KMOD 212153Z VRB03KT 10SM CLR 33/10 A3002 RMK AO2 SLP164 T03280100 $
TAF: KMOD 211724Z 2118/2218 33005KT P6SM SKC
View NOTAMs / SUP AIP / TFR affecting this airport [VIEW]
Communications frequencies: [VIEW]

Runways:

RWY identifierQFULength (ft)Width (ft)SurfaceLDA (ft)
126975200CONC
306975200CONC
177950200CONC
357950200CONC

Airport contact information

Address: Crows Landing United States

Satellite view of CA93